Time;durP1;ratioP1;P1;durP2;ratioP2;P2;SDS_P1;SDS_P2;PMS_P1;PMS_P2;Temp;Humidity;BMP_temperature;BMP_pressure;BME280_temperature;BME280_humidity;BME280_pressure;Samples;Min_cycle;Max_cycle;Signal;HPM_P1;HPM_P2
2022/08/02 00:01:29;;;;;;;1.08;0.60;;;;;;;;;;5038175;28;20049;-69
2022/08/02 00:03:54;;;;;;;0.65;0.65;;;;;;;;;;5039075;28;20037;-76
2022/08/02 00:06:20;;;;;;;1.42;0.90;;;;;;;;;;5039338;28;21035;-71
2022/08/02 00:08:45;;;;;;;0.60;0.60;;;;;;;;;;5039521;28;20044;-75
2022/08/02 00:11:11;;;;;;;1.02;0.45;;;;;;;;;;5038303;28;20064;-68
2022/08/02 00:13:37;;;;;;;0.68;0.60;;;;;;;;;;5039302;28;20048;-69
2022/08/02 00:16:02;;;;;;;2.33;0.60;;;;;;;;;;5039613;28;20414;-69
2022/08/02 00:18:28;;;;;;;4.40;0.63;;;;;;;;;;5039694;28;20064;-72
2022/08/02 00:20:53;;;;;;;0.60;0.60;;;;;;;;;;5039291;28;20049;-68
2022/08/02 00:23:19;;;;;;;0.60;0.60;;;;;;;;;;5038135;28;20052;-71
2022/08/02 00:25:44;;;;;;;2.97;0.52;;;;;;;;;;5039903;28;20045;-67
2022/08/02 00:28:10;;;;;;;1.65;0.63;;;;;;;;;;5021838;28;20111;-67
2022/08/02 00:30:36;;;;;;;1.58;0.60;;;;;;;;;;5021433;28;20059;-68
2022/08/02 00:33:04;;;;;;;0.57;0.57;;;;;;;;;;5040364;28;20139;-71
2022/08/02 00:35:29;;;;;;;2.33;0.80;;;;;;;;;;5041865;28;20041;-70
2022/08/02 00:37:54;;;;;;;2.75;0.73;;;;;;;;;;5042847;28;20102;-70
2022/08/02 00:40:22;;;;;;;0.65;0.50;;;;;;;;;;5042643;28;20099;-71
2022/08/02 00:43:07;;;;;;;2.40;0.70;;;;;;;;;;5043041;28;20052;-71
2022/08/02 00:45:34;;;;;;;0.65;0.60;;;;;;;;;;5011664;28;20503;-68
2022/08/02 00:48:00;;;;;;;0.63;0.63;;;;;;;;;;5043436;28;20045;-70
2022/08/02 00:50:26;;;;;;;1.30;0.73;;;;;;;;;;5008585;28;20060;-70
2022/08/02 00:52:51;;;;;;;0.70;0.70;;;;;;;;;;5042009;28;20045;-67
2022/08/02 00:55:17;;;;;;;0.70;0.70;;;;;;;;;;5042165;28;20125;-72
2022/08/02 00:57:42;;;;;;;1.02;0.63;;;;;;;;;;5042652;28;20522;-68
2022/08/02 01:00:08;;;;;;;0.70;0.50;;;;;;;;;;5042559;28;20428;-71
2022/08/02 01:02:34;;;;;;;0.70;0.70;;;;;;;;;;5041794;28;20089;-73
2022/08/02 01:04:59;;;;;;;2.92;0.88;;;;;;;;;;5041629;28;20048;-73
2022/08/02 01:07:26;;;;;;;1.25;0.80;;;;;;;;;;5041059;28;20041;-68
2022/08/02 01:09:52;;;;;;;2.03;0.90;;;;;;;;;;5042081;28;20132;-75
2022/08/02 01:12:17;;;;;;;1.52;1.25;;;;;;;;;;5041289;28;20060;-71
2022/08/02 01:14:46;;;;;;;3.53;1.08;;;;;;;;;;5041951;28;20567;-68
2022/08/02 01:17:30;;;;;;;1.05;0.80;;;;;;;;;;5041166;28;20118;-68
2022/08/02 01:20:17;;;;;;;1.63;1.13;;;;;;;;;;5041525;28;20462;-71
2022/08/02 01:23:14;;;;;;;1.48;0.90;;;;;;;;;;5023605;28;20079;-68
2022/08/02 01:25:57;;;;;;;0.88;0.88;;;;;;;;;;4986911;28;20067;-74
2022/08/02 01:28:33;;;;;;;1.17;1.08;;;;;;;;;;5040973;28;20057;-70
2022/08/02 01:31:11;;;;;;;3.20;1.00;;;;;;;;;;5040583;28;20091;-73
2022/08/02 01:33:46;;;;;;;1.10;0.98;;;;;;;;;;5041310;28;20052;-73
2022/08/02 01:36:14;;;;;;;1.67;1.20;;;;;;;;;;5041446;28;20044;-69
2022/08/02 01:38:46;;;;;;;2.65;1.05;;;;;;;;;;5040638;28;20045;-71
2022/08/02 01:41:24;;;;;;;5.00;1.15;;;;;;;;;;5036675;28;20056;-68
2022/08/02 01:43:54;;;;;;;1.85;1.05;;;;;;;;;;5040206;28;20449;-72
2022/08/02 01:46:20;;;;;;;1.15;1.00;;;;;;;;;;5041195;28;20052;-69
2022/08/02 01:48:49;;;;;;;1.00;1.00;;;;;;;;;;5041537;28;20045;-74
2022/08/02 01:51:17;;;;;;;1.23;0.80;;;;;;;;;;5039832;28;20048;-68
2022/08/02 01:53:46;;;;;;;1.83;1.30;;;;;;;;;;5041142;28;20178;-68
2022/08/02 01:56:15;;;;;;;1.27;1.00;;;;;;;;;;5024485;28;20179;-67
2022/08/02 01:58:42;;;;;;;0.80;0.80;;;;;;;;;;5041046;28;20041;-68
2022/08/02 02:01:09;;;;;;;1.02;0.98;;;;;;;;;;5039996;28;20133;-68
2022/08/02 02:03:37;;;;;;;1.23;0.90;;;;;;;;;;5040711;28;20612;-72
2022/08/02 02:06:05;;;;;;;0.90;0.90;;;;;;;;;;5040927;28;20057;-67
2022/08/02 02:08:38;;;;;;;1.25;0.90;;;;;;;;;;5041313;28;20531;-72
2022/08/02 02:11:05;;;;;;;2.70;1.00;;;;;;;;;;5039997;28;20056;-67
2022/08/02 02:13:32;;;;;;;2.22;0.90;;;;;;;;;;5039745;28;20047;-67
2022/08/02 02:16:01;;;;;;;1.65;1.10;;;;;;;;;;5022690;28;20052;-68
2022/08/02 02:18:28;;;;;;;0.98;0.90;;;;;;;;;;5040642;28;20056;-70
2022/08/02 02:20:54;;;;;;;4.65;1.10;;;;;;;;;;5042160;28;20473;-68
2022/08/02 02:23:20;;;;;;;1.30;0.80;;;;;;;;;;5039855;28;20828;-68
2022/08/02 02:25:46;;;;;;;1.65;1.10;;;;;;;;;;5040933;28;20562;-68
2022/08/02 02:28:15;;;;;;;2.33;1.20;;;;;;;;;;5041229;28;20136;-68
2022/08/02 02:30:46;;;;;;;1.67;1.05;;;;;;;;;;5040583;28;20056;-68
2022/08/02 02:33:15;;;;;;;0.90;0.88;;;;;;;;;;5039181;28;20399;-67
2022/08/02 02:35:42;;;;;;;6.63;1.27;;;;;;;;;;5041058;28;20049;-67
2022/08/02 02:38:11;;;;;;;0.93;0.82;;;;;;;;;;5040750;28;20044;-66
2022/08/02 02:40:37;;;;;;;1.10;1.00;;;;;;;;;;5040236;28;20045;-68
2022/08/02 02:43:05;;;;;;;1.40;1.30;;;;;;;;;;5039260;28;20384;-68
2022/08/02 02:45:32;;;;;;;0.95;0.90;;;;;;;;;;5038833;28;20044;-67
2022/08/02 02:47:59;;;;;;;3.22;1.30;;;;;;;;;;5040733;28;20109;-69
2022/08/02 02:50:27;;;;;;;3.63;1.10;;;;;;;;;;5040443;28;20495;-69
2022/08/02 02:52:53;;;;;;;2.55;1.05;;;;;;;;;;5039432;28;20400;-69
2022/08/02 02:55:19;;;;;;;2.78;1.30;;;;;;;;;;5039569;28;20922;-68
2022/08/02 02:57:45;;;;;;;1.05;0.95;;;;;;;;;;5040526;28;20037;-69
2022/08/02 03:00:13;;;;;;;1.15;1.05;;;;;;;;;;5040597;28;20106;-69
2022/08/02 03:02:40;;;;;;;2.30;1.20;;;;;;;;;;5040372;28;20435;-67
2022/08/02 03:05:07;;;;;;;1.33;1.20;;;;;;;;;;5040000;28;20136;-69
2022/08/02 03:07:33;;;;;;;2.17;1.30;;;;;;;;;;5038927;28;20052;-68
2022/08/02 03:09:59;;;;;;;1.50;1.40;;;;;;;;;;5040067;28;20041;-68
2022/08/02 03:12:26;;;;;;;3.88;1.35;;;;;;;;;;5039124;28;20127;-68
2022/08/02 03:14:52;;;;;;;1.48;1.30;;;;;;;;;;5039096;28;20045;-67
2022/08/02 03:17:18;;;;;;;2.90;1.08;;;;;;;;;;5022491;28;20043;-68
2022/08/02 03:19:44;;;;;;;3.13;1.58;;;;;;;;;;5039335;28;20044;-70
2022/08/02 03:22:10;;;;;;;2.63;1.30;;;;;;;;;;5039996;28;20419;-70
2022/08/02 03:24:36;;;;;;;3.17;2.83;;;;;;;;;;5039842;28;20487;-67
2022/08/02 03:27:02;;;;;;;1.20;1.10;;;;;;;;;;5039300;28;20044;-73
2022/08/02 03:29:28;;;;;;;1.55;1.20;;;;;;;;;;5020318;28;20049;-67
2022/08/02 03:31:54;;;;;;;1.48;1.38;;;;;;;;;;5039135;28;20053;-66
2022/08/02 03:34:20;;;;;;;1.23;1.15;;;;;;;;;;5039931;28;20060;-67
2022/08/02 03:36:47;;;;;;;1.67;1.42;;;;;;;;;;5021194;28;20475;-66
2022/08/02 03:39:14;;;;;;;5.22;1.27;;;;;;;;;;5038890;28;20072;-66
2022/08/02 03:41:41;;;;;;;2.55;1.30;;;;;;;;;;5037682;28;20136;-67
2022/08/02 03:44:06;;;;;;;1.73;1.40;;;;;;;;;;5038410;28;20053;-67
2022/08/02 03:46:33;;;;;;;1.95;1.40;;;;;;;;;;5022065;28;20041;-67
2022/08/02 03:48:59;;;;;;;2.10;1.63;;;;;;;;;;5039490;28;20450;-67
2022/08/02 03:51:25;;;;;;;1.73;1.40;;;;;;;;;;5037037;28;20120;-67
2022/08/02 03:53:51;;;;;;;4.05;1.48;;;;;;;;;;5038579;28;20111;-67
2022/08/02 03:56:17;;;;;;;1.40;1.30;;;;;;;;;;5039054;28;20449;-68
2022/08/02 03:58:42;;;;;;;1.27;1.17;;;;;;;;;;5039501;28;20053;-68
2022/08/02 04:01:08;;;;;;;1.73;1.10;;;;;;;;;;5037636;28;20044;-67
2022/08/02 04:03:33;;;;;;;2.83;1.30;;;;;;;;;;5039255;28;20040;-68
2022/08/02 04:05:59;;;;;;;2.20;1.23;;;;;;;;;;5039713;28;20048;-68
2022/08/02 04:08:24;;;;;;;2.80;1.60;;;;;;;;;;5042878;28;20044;-67
2022/08/02 04:13:37;;;;;;;1.63;1.52;;;;;;;;;;5043772;28;20060;-67
2022/08/02 04:16:27;;;;;;;3.05;1.50;;;;;;;;;;5044353;28;20523;-67
2022/08/02 04:18:57;;;;;;;1.75;1.52;;;;;;;;;;5041655;28;20076;-68
2022/08/02 04:21:27;;;;;;;2.38;1.40;;;;;;;;;;5015961;28;20056;-73
2022/08/02 04:23:55;;;;;;;3.13;1.58;;;;;;;;;;5041410;28;20801;-70
2022/08/02 04:26:20;;;;;;;2.90;1.40;;;;;;;;;;5042090;28;20102;-67
2022/08/02 04:28:47;;;;;;;4.07;1.70;;;;;;;;;;5023870;28;20830;-67
2022/08/02 04:31:14;;;;;;;1.40;1.30;;;;;;;;;;5042749;28;20844;-67
2022/08/02 04:33:39;;;;;;;2.42;1.48;;;;;;;;;;5043151;28;20346;-67
2022/08/02 04:36:05;;;;;;;1.38;1.27;;;;;;;;;;5042247;28;20514;-73
2022/08/02 04:38:31;;;;;;;1.67;1.20;;;;;;;;;;5042988;28;20064;-69
2022/08/02 04:40:56;;;;;;;2.28;1.33;;;;;;;;;;5042621;28;20041;-67
2022/08/02 04:43:22;;;;;;;1.95;1.30;;;;;;;;;;5042580;28;20080;-72
2022/08/02 04:45:52;;;;;;;2.10;1.40;;;;;;;;;;5042028;28;20564;-67
2022/08/02 04:48:18;;;;;;;3.03;1.40;;;;;;;;;;5042641;28;20130;-67
2022/08/02 04:50:44;;;;;;;1.45;1.30;;;;;;;;;;5042299;28;20499;-69
2022/08/02 04:53:09;;;;;;;1.20;1.10;;;;;;;;;;5042363;28;20055;-65
2022/08/02 04:55:35;;;;;;;3.05;1.20;;;;;;;;;;5042363;28;20945;-68
2022/08/02 04:58:00;;;;;;;6.68;1.25;;;;;;;;;;5024080;28;20507;-68
2022/08/02 05:00:27;;;;;;;1.33;1.23;;;;;;;;;;5024789;28;20052;-67
2022/08/02 05:02:55;;;;;;;3.75;1.52;;;;;;;;;;5041460;28;20056;-68
2022/08/02 05:05:20;;;;;;;2.45;1.13;;;;;;;;;;5042100;28;20053;-71
2022/08/02 05:07:45;;;;;;;1.00;1.00;;;;;;;;;;5022177;28;20052;-69
2022/08/02 05:10:11;;;;;;;1.25;1.13;;;;;;;;;;5042256;28;21036;-74
2022/08/02 05:12:37;;;;;;;2.35;1.20;;;;;;;;;;5041905;28;20190;-71
2022/08/02 05:15:03;;;;;;;2.65;1.10;;;;;;;;;;5021912;28;20048;-75
2022/08/02 05:17:29;;;;;;;1.40;1.30;;;;;;;;;;5039828;28;20051;-73
2022/08/02 05:19:54;;;;;;;1.42;1.27;;;;;;;;;;5038287;28;20087;-73
2022/08/02 05:22:20;;;;;;;2.40;1.20;;;;;;;;;;5040362;28;20522;-69
2022/08/02 05:24:45;;;;;;;1.95;1.35;;;;;;;;;;5039795;28;20037;-68
2022/08/02 05:27:10;;;;;;;2.92;1.30;;;;;;;;;;5039267;28;20049;-66
2022/08/02 05:29:36;;;;;;;3.03;1.20;;;;;;;;;;5041128;28;20111;-69
2022/08/02 05:32:03;;;;;;;3.75;1.00;;;;;;;;;;5043592;28;20352;-66
2022/08/02 05:34:28;;;;;;;1.08;1.02;;;;;;;;;;5050518;28;20041;-68
2022/08/02 05:36:54;;;;;;;0.90;0.90;;;;;;;;;;5042252;28;20094;-72
2022/08/02 05:39:19;;;;;;;0.90;0.80;;;;;;;;;;5040255;28;20044;-71
2022/08/02 05:41:45;;;;;;;1.33;1.15;;;;;;;;;;5038502;28;20045;-67
2022/08/02 05:44:10;;;;;;;1.17;1.02;;;;;;;;;;5040816;28;20111;-68
2022/08/02 05:46:36;;;;;;;0.90;0.90;;;;;;;;;;5039652;28;20099;-71
2022/08/02 05:49:03;;;;;;;1.00;0.90;;;;;;;;;;5040341;28;20053;-70
2022/08/02 05:51:58;;;;;;;1.15;1.00;;;;;;;;;;5038485;28;20048;-74
2022/08/02 05:54:26;;;;;;;1.90;1.10;;;;;;;;;;5040212;28;20590;-71
2022/08/02 05:57:04;;;;;;;2.78;1.05;;;;;;;;;;5039327;28;20606;-67
2022/08/02 05:59:52;;;;;;;1.05;0.98;;;;;;;;;;5040055;28;20495;-69
2022/08/02 06:02:34;;;;;;;2.83;0.98;;;;;;;;;;5038496;28;20132;-66
2022/08/02 06:05:06;;;;;;;2.35;0.70;;;;;;;;;;5026967;28;20140;-68
2022/08/02 06:07:35;;;;;;;0.80;0.80;;;;;;;;;;5039173;28;20122;-71
2022/08/02 06:10:26;;;;;;;0.90;0.77;;;;;;;;;;5041274;28;20040;-69
2022/08/02 06:13:08;;;;;;;1.90;1.10;;;;;;;;;;5021085;28;20080;-66
2022/08/02 06:15:34;;;;;;;0.70;0.70;;;;;;;;;;5039436;28;20467;-71
2022/08/02 06:18:01;;;;;;;0.77;0.77;;;;;;;;;;5040020;28;20059;-73
2022/08/02 06:20:34;;;;;;;0.80;0.80;;;;;;;;;;5022241;28;20049;-70
2022/08/02 06:23:03;;;;;;;0.80;0.80;;;;;;;;;;5038375;28;20052;-74
2022/08/02 06:25:30;;;;;;;0.80;0.80;;;;;;;;;;5038538;28;20076;-78
2022/08/02 06:27:58;;;;;;;0.82;0.82;;;;;;;;;;5039231;28;20049;-75
2022/08/02 06:30:24;;;;;;;1.90;0.70;;;;;;;;;;5044409;28;20048;-68
2022/08/02 06:32:51;;;;;;;1.48;0.60;;;;;;;;;;5039149;28;20048;-68
2022/08/02 06:35:16;;;;;;;0.70;0.70;;;;;;;;;;5038219;28;20099;-70
2022/08/02 06:37:57;;;;;;;2.20;0.60;;;;;;;;;;5039011;28;20041;-69
2022/08/02 06:40:47;;;;;;;0.70;0.70;;;;;;;;;;5039405;28;20052;-70
2022/08/02 06:43:22;;;;;;;0.68;0.68;;;;;;;;;;5039069;28;20073;-69
2022/08/02 06:45:48;;;;;;;0.70;0.70;;;;;;;;;;5038618;28;20045;-68
2022/08/02 06:48:13;;;;;;;0.85;0.85;;;;;;;;;;5038383;28;20044;-68
2022/08/02 06:50:40;;;;;;;0.63;0.60;;;;;;;;;;5038565;28;20041;-69
2022/08/02 06:53:08;;;;;;;0.98;0.88;;;;;;;;;;5038734;28;20048;-68
2022/08/02 06:55:33;;;;;;;1.33;0.63;;;;;;;;;;5038325;28;20049;-69
2022/08/02 06:57:59;;;;;;;0.90;0.70;;;;;;;;;;5019412;28;20052;-69
2022/08/02 07:00:27;;;;;;;1.08;0.60;;;;;;;;;;5038409;28;20052;-69
2022/08/02 07:02:52;;;;;;;0.50;0.50;;;;;;;;;;5037837;28;20319;-69
2022/08/02 07:05:18;;;;;;;1.42;0.80;;;;;;;;;;5038982;28;21070;-69
2022/08/02 07:07:44;;;;;;;0.70;0.70;;;;;;;;;;5038785;28;20047;-68
2022/08/02 07:10:10;;;;;;;1.20;0.93;;;;;;;;;;5038379;28;20052;-70
2022/08/02 07:12:35;;;;;;;0.70;0.70;;;;;;;;;;5038161;28;20060;-70
2022/08/02 07:15:03;;;;;;;0.80;0.70;;;;;;;;;;5038618;28;20132;-69
2022/08/02 07:17:29;;;;;;;0.70;0.70;;;;;;;;;;5038258;28;20053;-69
2022/08/02 07:19:56;;;;;;;0.63;0.50;;;;;;;;;;5038096;28;20037;-70
2022/08/02 07:22:23;;;;;;;0.65;0.60;;;;;;;;;;5015179;28;20079;-69
2022/08/02 07:24:49;;;;;;;0.50;0.50;;;;;;;;;;5037833;28;20143;-67
2022/08/02 07:27:15;;;;;;;0.68;0.68;;;;;;;;;;5037776;28;20509;-70
2022/08/02 07:29:41;;;;;;;0.90;0.70;;;;;;;;;;5038177;28;20044;-69
2022/08/02 07:32:06;;;;;;;0.73;0.73;;;;;;;;;;5037097;28;20075;-69
2022/08/02 07:34:31;;;;;;;1.90;0.80;;;;;;;;;;5038357;28;20410;-69
2022/08/02 07:36:57;;;;;;;0.70;0.60;;;;;;;;;;5035566;28;20044;-70
2022/08/02 07:39:23;;;;;;;0.60;0.60;;;;;;;;;;5039909;28;20049;-70
2022/08/02 07:41:50;;;;;;;1.23;0.68;;;;;;;;;;5037054;28;20091;-68
2022/08/02 07:44:20;;;;;;;0.60;0.60;;;;;;;;;;5043969;28;20126;-69
2022/08/02 07:46:46;;;;;;;2.25;0.80;;;;;;;;;;5026451;28;20045;-68
2022/08/02 07:49:17;;;;;;;2.08;0.88;;;;;;;;;;5044147;28;20049;-68
2022/08/02 07:51:46;;;;;;;0.90;0.60;;;;;;;;;;5044075;28;20495;-68
2022/08/02 07:54:12;;;;;;;2.28;0.80;;;;;;;;;;5043304;28;20098;-69
2022/08/02 07:56:37;;;;;;;1.27;0.88;;;;;;;;;;5044061;28;20052;-69
2022/08/02 07:59:03;;;;;;;1.08;0.70;;;;;;;;;;5043541;28;20045;-68
2022/08/02 08:01:29;;;;;;;0.77;0.75;;;;;;;;;;5043751;28;20053;-68
2022/08/02 08:03:54;;;;;;;1.55;0.75;;;;;;;;;;5043167;28;20068;-68
2022/08/02 08:06:19;;;;;;;3.88;0.80;;;;;;;;;;5043659;28;20594;-68
2022/08/02 08:08:45;;;;;;;1.08;0.80;;;;;;;;;;5044165;28;20068;-67
2022/08/02 08:11:10;;;;;;;1.65;0.80;;;;;;;;;;5042736;28;20146;-66
2022/08/02 08:13:36;;;;;;;0.80;0.80;;;;;;;;;;5043695;28;20175;-67
2022/08/02 08:16:01;;;;;;;1.73;0.80;;;;;;;;;;5042740;28;20055;-68
2022/08/02 08:18:26;;;;;;;1.33;0.73;;;;;;;;;;5043799;28;20053;-67
2022/08/02 08:20:52;;;;;;;0.70;0.70;;;;;;;;;;5043104;28;20037;-66
2022/08/02 08:23:17;;;;;;;1.20;0.80;;;;;;;;;;5043304;28;20061;-67
2022/08/02 08:25:43;;;;;;;0.70;0.70;;;;;;;;;;5042592;28;20053;-67
2022/08/02 08:28:08;;;;;;;2.80;1.00;;;;;;;;;;5043510;28;20051;-67
2022/08/02 08:30:34;;;;;;;0.80;0.80;;;;;;;;;;5043425;28;20045;-67
2022/08/02 08:32:59;;;;;;;2.60;0.80;;;;;;;;;;5042083;28;20163;-67
2022/08/02 08:35:24;;;;;;;0.77;0.77;;;;;;;;;;5025581;28;20117;-67
2022/08/02 08:37:51;;;;;;;0.82;0.80;;;;;;;;;;5042360;28;20053;-67
2022/08/02 08:40:17;;;;;;;2.25;0.95;;;;;;;;;;5043475;28;20056;-68
2022/08/02 08:42:43;;;;;;;5.28;0.90;;;;;;;;;;5042864;28;20121;-68
2022/08/02 08:45:09;;;;;;;1.20;0.80;;;;;;;;;;5042670;28;21039;-67
2022/08/02 08:47:38;;;;;;;1.02;1.00;;;;;;;;;;5042256;28;20037;-68
2022/08/02 08:50:07;;;;;;;2.50;0.70;;;;;;;;;;5042860;28;20045;-69
2022/08/02 08:52:40;;;;;;;0.77;0.73;;;;;;;;;;5042643;28;20499;-67
2022/08/02 08:55:09;;;;;;;0.80;0.80;;;;;;;;;;5042328;28;20060;-68
2022/08/02 08:57:39;;;;;;;1.42;0.85;;;;;;;;;;5041537;28;20103;-69
2022/08/02 09:00:05;;;;;;;2.65;0.82;;;;;;;;;;5037875;28;20507;-69
2022/08/02 09:02:36;;;;;;;0.80;0.80;;;;;;;;;;5040729;28;20040;-69
2022/08/02 09:05:01;;;;;;;0.93;0.70;;;;;;;;;;5039819;28;20059;-68
2022/08/02 09:07:27;;;;;;;2.78;0.90;;;;;;;;;;5041087;28;20045;-68
2022/08/02 09:09:53;;;;;;;1.35;0.88;;;;;;;;;;5039614;28;20045;-68
2022/08/02 09:12:21;;;;;;;0.93;0.80;;;;;;;;;;5039903;28;20049;-69
2022/08/02 09:14:46;;;;;;;5.05;1.00;;;;;;;;;;5040743;28;20068;-69
2022/08/02 09:17:12;;;;;;;0.80;0.80;;;;;;;;;;5040264;28;20133;-69
2022/08/02 09:19:38;;;;;;;5.78;0.95;;;;;;;;;;5041073;28;20076;-69
2022/08/02 09:22:09;;;;;;;2.65;0.73;;;;;;;;;;5039217;28;20503;-68
2022/08/02 09:24:47;;;;;;;;;;;;;;;;;;5041606;28;20048;-68
2022/08/02 09:27:15;;;;;;;1.85;0.88;;;;;;;;;;5040379;28;19986;-68
2022/08/02 09:29:45;;;;;;;1.00;0.90;;;;;;;;;;5039957;28;20036;-68
2022/08/02 09:32:11;;;;;;;2.22;1.48;;;;;;;;;;5022941;28;20045;-69
2022/08/02 09:34:44;;;;;;;3.08;1.15;;;;;;;;;;5040665;28;20044;-68
2022/08/02 09:37:30;;;;;;;0.70;0.70;;;;;;;;;;5041114;28;20049;-69
2022/08/02 09:39:59;;;;;;;0.90;0.70;;;;;;;;;;5041741;28;20045;-69
2022/08/02 09:42:25;;;;;;;2.67;1.00;;;;;;;;;;5039751;28;20053;-70
2022/08/02 09:44:56;;;;;;;4.45;0.82;;;;;;;;;;5038089;28;20102;-68
2022/08/02 09:47:23;;;;;;;0.68;0.68;;;;;;;;;;5041035;28;20045;-68
2022/08/02 09:49:49;;;;;;;1.92;0.80;;;;;;;;;;5024171;28;20037;-67
2022/08/02 09:52:14;;;;;;;0.88;0.70;;;;;;;;;;5041127;28;20481;-67
2022/08/02 09:54:41;;;;;;;0.95;0.93;;;;;;;;;;5041212;28;20041;-70
2022/08/02 09:57:07;;;;;;;3.15;1.17;;;;;;;;;;5041045;28;20041;-68
2022/08/02 09:59:32;;;;;;;1.98;0.80;;;;;;;;;;5043568;28;20049;-70
2022/08/02 10:02:01;;;;;;;2.95;0.80;;;;;;;;;;5040919;28;20045;-71
2022/08/02 10:04:30;;;;;;;5.38;0.93;;;;;;;;;;5039805;28;20568;-69
2022/08/02 10:06:58;;;;;;;0.70;0.70;;;;;;;;;;5040616;28;20072;-67
2022/08/02 10:09:24;;;;;;;0.70;0.70;;;;;;;;;;5041396;28;20098;-67
2022/08/02 10:11:50;;;;;;;0.70;0.70;;;;;;;;;;5040753;28;20130;-70
2022/08/02 10:14:18;;;;;;;2.13;0.95;;;;;;;;;;5040213;28;20049;-68
2022/08/02 10:16:43;;;;;;;3.00;0.80;;;;;;;;;;5040966;28;20610;-69
2022/08/02 10:19:09;;;;;;;0.80;0.80;;;;;;;;;;5040568;28;20521;-69
2022/08/02 10:21:48;;;;;;;0.80;0.80;;;;;;;;;;5041160;28;20052;-68
2022/08/02 10:24:20;;;;;;;1.65;0.70;;;;;;;;;;5040990;28;20072;-71
2022/08/02 10:26:47;;;;;;;0.90;0.77;;;;;;;;;;5039761;28;20045;-68
2022/08/02 10:29:18;;;;;;;1.38;0.73;;;;;;;;;;5035994;28;20055;-70
2022/08/02 10:31:53;;;;;;;;;;;;;;;;;;5038292;28;20061;-70
2022/08/02 10:34:28;;;;;;;2.25;0.75;;;;;;;;;;5039390;28;19920;-69
2022/08/02 10:36:54;;;;;;;1.30;0.80;;;;;;;;;;5037722;28;20103;-74
2022/08/02 10:39:19;;;;;;;1.40;0.80;;;;;;;;;;5037943;28;20466;-70
2022/08/02 10:41:52;;;;;;;2.30;0.80;;;;;;;;;;5038476;28;20053;-70
2022/08/02 10:44:29;;;;;;;0.80;0.80;;;;;;;;;;5038951;28;20141;-71
2022/08/02 10:47:19;;;;;;;0.73;0.73;;;;;;;;;;5035800;28;20037;-67
2022/08/02 10:49:56;;;;;;;1.25;0.90;;;;;;;;;;5024101;28;20033;-67
2022/08/02 10:52:23;;;;;;;2.28;0.90;;;;;;;;;;5038805;28;20457;-69
2022/08/02 10:54:50;;;;;;;1.90;1.00;;;;;;;;;;5038902;28;20495;-69
2022/08/02 10:57:30;;;;;;;0.98;0.80;;;;;;;;;;5038742;28;20420;-68
2022/08/02 11:00:09;;;;;;;1.27;0.80;;;;;;;;;;5008397;28;20510;-70
2022/08/02 11:02:38;;;;;;;0.88;0.73;;;;;;;;;;5037554;28;20195;-70
2022/08/02 11:05:09;;;;;;;0.80;0.73;;;;;;;;;;5038809;28;21111;-68
2022/08/02 11:07:35;;;;;;;;;;;;;;;;;;5039935;28;20118;-66
2022/08/02 11:10:26;;;;;;;1.45;0.82;;;;;;;;;;5038977;28;19920;-69
2022/08/02 11:13:01;;;;;;;1.88;0.82;;;;;;;;;;5039742;28;20044;-69
2022/08/02 11:15:27;;;;;;;1.08;0.82;;;;;;;;;;5022129;28;20048;-68
2022/08/02 11:17:55;;;;;;;1.00;0.82;;;;;;;;;;5040351;28;20048;-66
2022/08/02 11:20:22;;;;;;;1.42;0.80;;;;;;;;;;5039327;28;20042;-68
2022/08/02 11:22:50;;;;;;;2.90;0.90;;;;;;;;;;5040169;28;20048;-68
2022/08/02 11:25:21;;;;;;;2.15;0.80;;;;;;;;;;5039562;28;20061;-68
2022/08/02 11:27:51;;;;;;;1.25;0.90;;;;;;;;;;5040199;28;20041;-70
2022/08/02 11:30:18;;;;;;;0.70;0.70;;;;;;;;;;5040992;28;20045;-69
2022/08/02 11:32:43;;;;;;;0.70;0.70;;;;;;;;;;5021234;28;20757;-69
2022/08/02 11:35:09;;;;;;;1.20;0.90;;;;;;;;;;5039489;28;20073;-69
2022/08/02 11:37:35;;;;;;;2.10;0.90;;;;;;;;;;5040077;28;20044;-69
2022/08/02 11:40:06;;;;;;;0.80;0.80;;;;;;;;;;5040294;28;20048;-70
2022/08/02 11:42:36;;;;;;;4.45;1.10;;;;;;;;;;5039129;28;20052;-69
2022/08/02 11:45:07;;;;;;;4.23;1.27;;;;;;;;;;5039501;28;20045;-70
2022/08/02 11:47:33;;;;;;;1.60;0.80;;;;;;;;;;5039815;28;20049;-67
2022/08/02 11:50:09;;;;;;;1.08;0.90;;;;;;;;;;5040208;28;20106;-70
2022/08/02 11:52:36;;;;;;;1.15;0.70;;;;;;;;;;5039431;28;20049;-71
2022/08/02 11:55:01;;;;;;;3.05;0.77;;;;;;;;;;5038452;28;20053;-68
2022/08/02 11:57:27;;;;;;;0.85;0.82;;;;;;;;;;5039686;28;20063;-67
2022/08/02 11:59:54;;;;;;;0.82;0.80;;;;;;;;;;5034916;28;20041;-70
2022/08/02 12:02:24;;;;;;;2.17;0.75;;;;;;;;;;5037896;28;20053;-70
2022/08/02 12:05:03;;;;;;;4.85;1.20;;;;;;;;;;5036242;28;20163;-69
2022/08/02 12:07:31;;;;;;;4.75;1.02;;;;;;;;;;5003074;28;20049;-68
2022/08/02 12:10:03;;;;;;;0.50;0.50;;;;;;;;;;5037301;28;20037;-70
2022/08/02 12:12:28;;;;;;;0.70;0.70;;;;;;;;;;5037814;28;20073;-70
2022/08/02 12:14:54;;;;;;;1.30;0.70;;;;;;;;;;5036819;28;20128;-70
2022/08/02 12:20:11;;;;;;;1.52;0.88;;;;;;;;;;5036113;28;20051;-70
2022/08/02 12:22:37;;;;;;;0.80;0.80;;;;;;;;;;5036640;28;20037;-68
2022/08/02 12:25:20;;;;;;;4.32;0.73;;;;;;;;;;5037579;28;20400;-68
2022/08/02 12:27:46;;;;;;;0.90;0.82;;;;;;;;;;5035976;28;20091;-68
2022/08/02 12:30:16;;;;;;;0.85;0.80;;;;;;;;;;5041461;28;20045;-68
2022/08/02 12:32:43;;;;;;;2.97;0.80;;;;;;;;;;5040282;28;20063;-71
2022/08/02 12:35:14;;;;;;;0.80;0.80;;;;;;;;;;5023379;28;20041;-69
2022/08/02 12:37:42;;;;;;;0.70;0.65;;;;;;;;;;5015429;28;20041;-69
2022/08/02 12:40:28;;;;;;;0.70;0.70;;;;;;;;;;5041822;28;20060;-69
2022/08/02 12:42:57;;;;;;;8.25;0.70;;;;;;;;;;5040880;28;20096;-69
2022/08/02 12:45:24;;;;;;;1.73;0.88;;;;;;;;;;5041285;28;20045;-67
2022/08/02 12:47:53;;;;;;;2.47;0.85;;;;;;;;;;5041169;28;20045;-70
2022/08/02 12:50:22;;;;;;;0.70;0.70;;;;;;;;;;5040811;28;20106;-71
2022/08/02 12:52:49;;;;;;;1.10;0.90;;;;;;;;;;5040812;28;20048;-69
2022/08/02 12:55:18;;;;;;;1.77;0.80;;;;;;;;;;5040952;28;20045;-70
2022/08/02 12:57:54;;;;;;;1.75;0.60;;;;;;;;;;5039980;28;20522;-70
2022/08/02 13:00:28;;;;;;;0.75;0.68;;;;;;;;;;5039783;28;20091;-68
2022/08/02 13:02:55;;;;;;;2.15;0.65;;;;;;;;;;5012632;28;20045;-67
2022/08/02 13:05:20;;;;;;;1.85;1.02;;;;;;;;;;5038848;28;20625;-68
2022/08/02 13:07:46;;;;;;;0.80;0.80;;;;;;;;;;5042365;28;20107;-68
2022/08/02 13:10:12;;;;;;;0.70;0.70;;;;;;;;;;5041654;28;20094;-69
2022/08/02 13:12:38;;;;;;;0.80;0.80;;;;;;;;;;5040116;28;20106;-69
2022/08/02 13:15:08;;;;;;;1.27;0.80;;;;;;;;;;5041279;28;20281;-68
2022/08/02 13:17:34;;;;;;;0.90;0.80;;;;;;;;;;5042130;28;20044;-67
2022/08/02 13:20:00;;;;;;;4.32;0.85;;;;;;;;;;5042134;28;20059;-70
2022/08/02 13:22:25;;;;;;;1.52;0.70;;;;;;;;;;5039622;28;20041;-70
2022/08/02 13:24:50;;;;;;;1.95;0.82;;;;;;;;;;5042248;28;20501;-69
2022/08/02 13:27:17;;;;;;;0.93;0.75;;;;;;;;;;5041423;28;20055;-70
2022/08/02 13:29:43;;;;;;;0.88;0.82;;;;;;;;;;5042417;28;20045;-68
2022/08/02 13:32:08;;;;;;;1.17;0.82;;;;;;;;;;5040641;28;20060;-69
2022/08/02 13:34:34;;;;;;;4.50;0.77;;;;;;;;;;5041400;28;20055;-69
2022/08/02 13:37:00;;;;;;;1.95;0.80;;;;;;;;;;5041085;28;20123;-69
2022/08/02 13:39:26;;;;;;;1.05;0.70;;;;;;;;;;5040845;28;20187;-70
2022/08/02 13:41:51;;;;;;;1.50;0.90;;;;;;;;;;5041157;28;20127;-68
2022/08/02 13:44:17;;;;;;;1.48;0.93;;;;;;;;;;5040078;28;20053;-69
2022/08/02 13:46:42;;;;;;;1.08;0.70;;;;;;;;;;5041480;28;20048;-69
2022/08/02 13:49:08;;;;;;;0.77;0.70;;;;;;;;;;5040721;28;20570;-69
2022/08/02 13:51:33;;;;;;;2.03;0.80;;;;;;;;;;5041362;28;20499;-68
2022/08/02 13:53:59;;;;;;;1.33;0.70;;;;;;;;;;5041277;28;20045;-69
2022/08/02 13:56:24;;;;;;;3.55;0.80;;;;;;;;;;5040392;28;20503;-70
2022/08/02 13:58:50;;;;;;;1.00;0.70;;;;;;;;;;5041437;28;20580;-69
2022/08/02 14:01:15;;;;;;;1.17;0.70;;;;;;;;;;5040781;28;20068;-69
2022/08/02 14:03:40;;;;;;;1.13;0.75;;;;;;;;;;5041064;28;20091;-69
2022/08/02 14:06:07;;;;;;;1.13;0.70;;;;;;;;;;5040283;28;20143;-67
2022/08/02 14:08:33;;;;;;;1.35;0.90;;;;;;;;;;5041002;28;20044;-67
2022/08/02 14:10:58;;;;;;;1.35;0.80;;;;;;;;;;5022556;28;20049;-69
2022/08/02 14:13:24;;;;;;;2.33;0.80;;;;;;;;;;5041070;28;20125;-69
2022/08/02 14:15:49;;;;;;;2.15;0.68;;;;;;;;;;5041303;28;20072;-68
2022/08/02 14:18:16;;;;;;;3.97;0.73;;;;;;;;;;5040151;28;20122;-69
2022/08/02 14:20:43;;;;;;;2.80;0.85;;;;;;;;;;5041042;28;20132;-67
2022/08/02 14:23:09;;;;;;;0.85;0.80;;;;;;;;;;5022582;28;20052;-69
2022/08/02 14:25:35;;;;;;;3.25;0.90;;;;;;;;;;5040611;28;20556;-68
2022/08/02 14:28:01;;;;;;;0.70;0.70;;;;;;;;;;5040625;28;20052;-70
2022/08/02 14:30:27;;;;;;;1.27;0.80;;;;;;;;;;5040706;28;20044;-68
2022/08/02 14:32:52;;;;;;;4.88;1.00;;;;;;;;;;5021543;28;20049;-68
2022/08/02 14:35:18;;;;;;;1.15;0.85;;;;;;;;;;5040581;28;20538;-70
2022/08/02 14:37:43;;;;;;;1.67;0.80;;;;;;;;;;5040428;28;20542;-67
2022/08/02 14:40:09;;;;;;;2.78;0.70;;;;;;;;;;5038896;28;20047;-70
2022/08/02 14:42:34;;;;;;;1.27;0.70;;;;;;;;;;5038819;28;20503;-68
2022/08/02 14:45:00;;;;;;;0.60;0.60;;;;;;;;;;5038538;28;20140;-69
2022/08/02 14:47:26;;;;;;;7.10;0.70;;;;;;;;;;5037798;28;20045;-69
2022/08/02 14:49:51;;;;;;;1.20;0.73;;;;;;;;;;5039107;28;20075;-68
2022/08/02 14:52:17;;;;;;;1.38;0.60;;;;;;;;;;5038215;28;20109;-69
2022/08/02 14:54:43;;;;;;;0.95;0.60;;;;;;;;;;5022365;28;20817;-68